sensor_id;sensor_type;location;lat;lon;timestamp;P1;durP1;ratioP1;P2;durP2;ratioP2
36315;SDS011;22343;50.820;2.666;2023-04-29T00:01:34;36.00;;;21.40;;
36315;SDS011;22343;50.820;2.666;2023-04-29T00:04:18;31.93;;;20.70;;
36315;SDS011;22343;50.820;2.666;2023-04-29T00:07:03;31.90;;;18.47;;
36315;SDS011;22343;50.820;2.666;2023-04-29T00:09:47;28.10;;;19.63;;
36315;SDS011;22343;50.820;2.666;2023-04-29T00:12:32;31.63;;;19.60;;
36315;SDS011;22343;50.820;2.666;2023-04-29T00:15:16;27.53;;;17.90;;
36315;SDS011;22343;50.820;2.666;2023-04-29T00:18:01;29.10;;;18.63;;
36315;SDS011;22343;50.820;2.666;2023-04-29T00:20:46;26.87;;;17.30;;
36315;SDS011;22343;50.820;2.666;2023-04-29T00:23:31;27.47;;;17.90;;
36315;SDS011;22343;50.820;2.666;2023-04-29T00:26:16;24.97;;;16.73;;
36315;SDS011;22343;50.820;2.666;2023-04-29T00:29:00;24.00;;;15.70;;
36315;SDS011;22343;50.820;2.666;2023-04-29T00:31:45;26.80;;;16.97;;
36315;SDS011;22343;50.820;2.666;2023-04-29T00:34:29;25.10;;;16.87;;
36315;SDS011;22343;50.820;2.666;2023-04-29T00:37:13;30.83;;;19.17;;
36315;SDS011;22343;50.820;2.666;2023-04-29T00:39:58;27.47;;;17.73;;
36315;SDS011;22343;50.820;2.666;2023-04-29T00:42:42;26.27;;;16.90;;
36315;SDS011;22343;50.820;2.666;2023-04-29T00:45:27;28.33;;;16.77;;
36315;SDS011;22343;50.820;2.666;2023-04-29T00:48:11;27.30;;;18.03;;
36315;SDS011;22343;50.820;2.666;2023-04-29T00:50:58;29.83;;;16.53;;
36315;SDS011;22343;50.820;2.666;2023-04-29T00:53:42;28.60;;;18.93;;
36315;SDS011;22343;50.820;2.666;2023-04-29T00:56:28;28.30;;;18.10;;
36315;SDS011;22343;50.820;2.666;2023-04-29T00:59:15;29.87;;;18.27;;
36315;SDS011;22343;50.820;2.666;2023-04-29T01:02:00;33.43;;;18.70;;
36315;SDS011;22343;50.820;2.666;2023-04-29T01:04:47;26.83;;;18.47;;
36315;SDS011;22343;50.820;2.666;2023-04-29T01:10:34;32.83;;;18.27;;
36315;SDS011;22343;50.820;2.666;2023-04-29T01:13:36;28.97;;;18.57;;
36315;SDS011;22343;50.820;2.666;2023-04-29T01:22:31;25.47;;;16.93;;
36315;SDS011;22343;50.820;2.666;2023-04-29T01:25:15;30.87;;;18.93;;
36315;SDS011;22343;50.820;2.666;2023-04-29T01:31:12;30.53;;;19.23;;
36315;SDS011;22343;50.820;2.666;2023-04-29T01:43:03;28.73;;;18.77;;
36315;SDS011;22343;50.820;2.666;2023-04-29T01:45:49;33.83;;;19.77;;
36315;SDS011;22343;50.820;2.666;2023-04-29T01:48:36;32.17;;;20.20;;
36315;SDS011;22343;50.820;2.666;2023-04-29T01:51:21;30.97;;;20.67;;
36315;SDS011;22343;50.820;2.666;2023-04-29T01:54:05;28.63;;;19.73;;
36315;SDS011;22343;50.820;2.666;2023-04-29T01:56:49;35.10;;;20.80;;
36315;SDS011;22343;50.820;2.666;2023-04-29T01:59:35;33.60;;;20.20;;
36315;SDS011;22343;50.820;2.666;2023-04-29T02:02:19;28.60;;;19.07;;
36315;SDS011;22343;50.820;2.666;2023-04-29T02:05:08;31.83;;;19.77;;
36315;SDS011;22343;50.820;2.666;2023-04-29T02:07:52;29.43;;;20.13;;
36315;SDS011;22343;50.820;2.666;2023-04-29T02:10:37;30.67;;;18.77;;
36315;SDS011;22343;50.820;2.666;2023-04-29T02:13:21;29.87;;;19.20;;
36315;SDS011;22343;50.820;2.666;2023-04-29T02:16:09;27.70;;;18.63;;
36315;SDS011;22343;50.820;2.666;2023-04-29T02:18:54;29.40;;;18.93;;
36315;SDS011;22343;50.820;2.666;2023-04-29T02:21:38;29.00;;;18.10;;
36315;SDS011;22343;50.820;2.666;2023-04-29T02:24:23;24.30;;;17.10;;
36315;SDS011;22343;50.820;2.666;2023-04-29T02:27:07;24.17;;;16.67;;
36315;SDS011;22343;50.820;2.666;2023-04-29T02:29:53;28.10;;;18.00;;
36315;SDS011;22343;50.820;2.666;2023-04-29T02:32:37;27.97;;;17.57;;
36315;SDS011;22343;50.820;2.666;2023-04-29T02:35:22;28.17;;;17.90;;
36315;SDS011;22343;50.820;2.666;2023-04-29T02:38:06;25.87;;;16.40;;
36315;SDS011;22343;50.820;2.666;2023-04-29T02:40:51;28.10;;;16.90;;
36315;SDS011;22343;50.820;2.666;2023-04-29T02:43:35;29.53;;;16.83;;
36315;SDS011;22343;50.820;2.666;2023-04-29T02:46:19;25.00;;;16.73;;
36315;SDS011;22343;50.820;2.666;2023-04-29T02:49:04;24.77;;;16.53;;
36315;SDS011;22343;50.820;2.666;2023-04-29T02:51:48;24.50;;;17.07;;
36315;SDS011;22343;50.820;2.666;2023-04-29T02:54:33;23.00;;;16.47;;
36315;SDS011;22343;50.820;2.666;2023-04-29T02:57:17;20.30;;;12.83;;
36315;SDS011;22343;50.820;2.666;2023-04-29T03:00:01;24.20;;;15.93;;
36315;SDS011;22343;50.820;2.666;2023-04-29T03:02:47;23.87;;;16.33;;
36315;SDS011;22343;50.820;2.666;2023-04-29T03:05:31;22.10;;;16.27;;
36315;SDS011;22343;50.820;2.666;2023-04-29T03:08:16;23.97;;;17.30;;
36315;SDS011;22343;50.820;2.666;2023-04-29T03:11:00;22.50;;;16.07;;
36315;SDS011;22343;50.820;2.666;2023-04-29T03:13:45;22.37;;;16.20;;
36315;SDS011;22343;50.820;2.666;2023-04-29T03:16:29;23.37;;;16.33;;
36315;SDS011;22343;50.820;2.666;2023-04-29T03:19:14;24.37;;;16.97;;
36315;SDS011;22343;50.820;2.666;2023-04-29T03:21:59;24.47;;;17.70;;
36315;SDS011;22343;50.820;2.666;2023-04-29T03:24:44;24.50;;;17.37;;
36315;SDS011;22343;50.820;2.666;2023-04-29T03:27:28;24.10;;;18.03;;
36315;SDS011;22343;50.820;2.666;2023-04-29T03:30:12;24.77;;;17.30;;
36315;SDS011;22343;50.820;2.666;2023-04-29T03:32:57;23.33;;;17.33;;
36315;SDS011;22343;50.820;2.666;2023-04-29T03:35:41;26.37;;;18.17;;
36315;SDS011;22343;50.820;2.666;2023-04-29T03:38:25;24.53;;;17.67;;
36315;SDS011;22343;50.820;2.666;2023-04-29T03:41:10;24.40;;;17.83;;
36315;SDS011;22343;50.820;2.666;2023-04-29T03:43:54;24.20;;;18.53;;
36315;SDS011;22343;50.820;2.666;2023-04-29T03:46:43;27.93;;;19.10;;
36315;SDS011;22343;50.820;2.666;2023-04-29T03:49:27;26.47;;;17.60;;
36315;SDS011;22343;50.820;2.666;2023-04-29T03:52:11;25.37;;;17.60;;
36315;SDS011;22343;50.820;2.666;2023-04-29T03:54:56;23.30;;;16.43;;
36315;SDS011;22343;50.820;2.666;2023-04-29T03:57:40;22.20;;;16.77;;
36315;SDS011;22343;50.820;2.666;2023-04-29T04:00:24;22.17;;;16.80;;
36315;SDS011;22343;50.820;2.666;2023-04-29T04:03:09;20.93;;;16.50;;
36315;SDS011;22343;50.820;2.666;2023-04-29T04:05:54;23.77;;;17.43;;
36315;SDS011;22343;50.820;2.666;2023-04-29T04:08:39;24.53;;;16.77;;
36315;SDS011;22343;50.820;2.666;2023-04-29T04:11:24;23.07;;;16.60;;
36315;SDS011;22343;50.820;2.666;2023-04-29T04:14:08;20.27;;;15.70;;
36315;SDS011;22343;50.820;2.666;2023-04-29T04:16:53;25.97;;;16.23;;
36315;SDS011;22343;50.820;2.666;2023-04-29T04:19:38;26.70;;;16.93;;
36315;SDS011;22343;50.820;2.666;2023-04-29T04:22:22;22.10;;;15.87;;
36315;SDS011;22343;50.820;2.666;2023-04-29T04:25:06;24.97;;;17.23;;
36315;SDS011;22343;50.820;2.666;2023-04-29T04:27:51;24.23;;;16.53;;
36315;SDS011;22343;50.820;2.666;2023-04-29T04:30:35;22.10;;;17.00;;
36315;SDS011;22343;50.820;2.666;2023-04-29T04:33:20;22.43;;;16.87;;
36315;SDS011;22343;50.820;2.666;2023-04-29T04:36:04;22.97;;;15.93;;
36315;SDS011;22343;50.820;2.666;2023-04-29T04:38:49;19.37;;;13.57;;
36315;SDS011;22343;50.820;2.666;2023-04-29T04:41:33;21.77;;;14.67;;
36315;SDS011;22343;50.820;2.666;2023-04-29T04:44:18;18.47;;;14.97;;
36315;SDS011;22343;50.820;2.666;2023-04-29T04:47:02;21.50;;;14.87;;
36315;SDS011;22343;50.820;2.666;2023-04-29T04:49:47;22.00;;;14.77;;
36315;SDS011;22343;50.820;2.666;2023-04-29T04:52:32;21.60;;;15.53;;
36315;SDS011;22343;50.820;2.666;2023-04-29T04:55:16;21.50;;;15.93;;
36315;SDS011;22343;50.820;2.666;2023-04-29T04:58:01;24.20;;;16.33;;
36315;SDS011;22343;50.820;2.666;2023-04-29T05:00:45;22.73;;;16.73;;
36315;SDS011;22343;50.820;2.666;2023-04-29T05:03:29;22.10;;;16.37;;
36315;SDS011;22343;50.820;2.666;2023-04-29T05:06:14;23.00;;;16.47;;
36315;SDS011;22343;50.820;2.666;2023-04-29T05:08:58;21.87;;;16.77;;
36315;SDS011;22343;50.820;2.666;2023-04-29T05:11:42;25.17;;;16.90;;
36315;SDS011;22343;50.820;2.666;2023-04-29T05:14:28;21.57;;;15.70;;
36315;SDS011;22343;50.820;2.666;2023-04-29T05:17:12;20.50;;;14.13;;
36315;SDS011;22343;50.820;2.666;2023-04-29T05:19:56;21.80;;;15.13;;
36315;SDS011;22343;50.820;2.666;2023-04-29T05:22:41;26.17;;;16.57;;
36315;SDS011;22343;50.820;2.666;2023-04-29T05:25:25;23.73;;;14.97;;
36315;SDS011;22343;50.820;2.666;2023-04-29T05:28:10;19.30;;;14.40;;
36315;SDS011;22343;50.820;2.666;2023-04-29T05:30:54;18.70;;;14.00;;
36315;SDS011;22343;50.820;2.666;2023-04-29T05:33:38;18.30;;;13.33;;
36315;SDS011;22343;50.820;2.666;2023-04-29T05:36:23;17.43;;;13.57;;
36315;SDS011;22343;50.820;2.666;2023-04-29T05:39:07;17.03;;;13.10;;
36315;SDS011;22343;50.820;2.666;2023-04-29T05:41:51;19.93;;;13.37;;
36315;SDS011;22343;50.820;2.666;2023-04-29T05:44:36;18.00;;;13.47;;
36315;SDS011;22343;50.820;2.666;2023-04-29T05:47:20;18.77;;;13.07;;
36315;SDS011;22343;50.820;2.666;2023-04-29T05:50:05;16.33;;;13.07;;
36315;SDS011;22343;50.820;2.666;2023-04-29T05:52:50;16.77;;;13.67;;
36315;SDS011;22343;50.820;2.666;2023-04-29T05:55:34;19.60;;;14.40;;
36315;SDS011;22343;50.820;2.666;2023-04-29T05:58:19;19.67;;;14.23;;
36315;SDS011;22343;50.820;2.666;2023-04-29T06:01:03;19.97;;;13.53;;
36315;SDS011;22343;50.820;2.666;2023-04-29T06:03:48;22.07;;;14.60;;
36315;SDS011;22343;50.820;2.666;2023-04-29T06:06:32;21.03;;;14.67;;
36315;SDS011;22343;50.820;2.666;2023-04-29T06:09:17;21.40;;;14.03;;
36315;SDS011;22343;50.820;2.666;2023-04-29T06:12:03;21.63;;;15.10;;
36315;SDS011;22343;50.820;2.666;2023-04-29T06:14:48;22.20;;;15.47;;
36315;SDS011;22343;50.820;2.666;2023-04-29T06:17:32;20.90;;;15.83;;
36315;SDS011;22343;50.820;2.666;2023-04-29T06:20:17;17.63;;;12.90;;
36315;SDS011;22343;50.820;2.666;2023-04-29T06:23:01;20.00;;;14.13;;
36315;SDS011;22343;50.820;2.666;2023-04-29T06:25:45;20.70;;;14.03;;
36315;SDS011;22343;50.820;2.666;2023-04-29T06:28:30;20.37;;;13.47;;
36315;SDS011;22343;50.820;2.666;2023-04-29T06:31:14;18.00;;;13.40;;
36315;SDS011;22343;50.820;2.666;2023-04-29T06:33:59;16.43;;;12.73;;
36315;SDS011;22343;50.820;2.666;2023-04-29T06:36:43;16.77;;;12.60;;
36315;SDS011;22343;50.820;2.666;2023-04-29T06:39:27;16.43;;;11.80;;
36315;SDS011;22343;50.820;2.666;2023-04-29T06:42:11;18.97;;;13.17;;
36315;SDS011;22343;50.820;2.666;2023-04-29T06:44:56;17.00;;;13.30;;
36315;SDS011;22343;50.820;2.666;2023-04-29T06:47:40;20.03;;;13.93;;
36315;SDS011;22343;50.820;2.666;2023-04-29T06:50:25;20.03;;;13.40;;
36315;SDS011;22343;50.820;2.666;2023-04-29T06:53:09;17.77;;;13.10;;
36315;SDS011;22343;50.820;2.666;2023-04-29T06:55:54;16.50;;;12.67;;
36315;SDS011;22343;50.820;2.666;2023-04-29T06:58:38;19.77;;;11.93;;
36315;SDS011;22343;50.820;2.666;2023-04-29T07:01:22;15.23;;;11.93;;
36315;SDS011;22343;50.820;2.666;2023-04-29T07:04:07;15.37;;;10.93;;
36315;SDS011;22343;50.820;2.666;2023-04-29T07:06:51;18.50;;;12.77;;
36315;SDS011;22343;50.820;2.666;2023-04-29T07:09:36;19.23;;;13.07;;
36315;SDS011;22343;50.820;2.666;2023-04-29T07:12:21;21.97;;;13.70;;
36315;SDS011;22343;50.820;2.666;2023-04-29T07:15:05;18.57;;;13.27;;
36315;SDS011;22343;50.820;2.666;2023-04-29T07:17:50;16.70;;;12.87;;
36315;SDS011;22343;50.820;2.666;2023-04-29T07:20:38;22.00;;;15.43;;
36315;SDS011;22343;50.820;2.666;2023-04-29T07:23:22;19.60;;;15.33;;
36315;SDS011;22343;50.820;2.666;2023-04-29T07:26:12;20.10;;;14.83;;
36315;SDS011;22343;50.820;2.666;2023-04-29T07:28:59;18.17;;;15.10;;
36315;SDS011;22343;50.820;2.666;2023-04-29T07:31:43;21.40;;;15.57;;
36315;SDS011;22343;50.820;2.666;2023-04-29T07:34:28;21.53;;;15.00;;
36315;SDS011;22343;50.820;2.666;2023-04-29T07:37:12;19.37;;;13.70;;
36315;SDS011;22343;50.820;2.666;2023-04-29T07:39:57;18.60;;;12.27;;
36315;SDS011;22343;50.820;2.666;2023-04-29T07:42:41;18.00;;;13.17;;
36315;SDS011;22343;50.820;2.666;2023-04-29T07:45:25;17.30;;;13.47;;
36315;SDS011;22343;50.820;2.666;2023-04-29T07:48:10;21.00;;;14.03;;
36315;SDS011;22343;50.820;2.666;2023-04-29T07:50:54;21.73;;;14.47;;
36315;SDS011;22343;50.820;2.666;2023-04-29T07:53:39;19.70;;;15.60;;
36315;SDS011;22343;50.820;2.666;2023-04-29T07:56:23;20.67;;;14.43;;
36315;SDS011;22343;50.820;2.666;2023-04-29T07:59:09;19.53;;;13.87;;
36315;SDS011;22343;50.820;2.666;2023-04-29T08:01:53;18.77;;;13.97;;
36315;SDS011;22343;50.820;2.666;2023-04-29T08:04:38;20.27;;;14.50;;
36315;SDS011;22343;50.820;2.666;2023-04-29T08:07:26;20.33;;;14.80;;
36315;SDS011;22343;50.820;2.666;2023-04-29T08:10:10;20.47;;;14.53;;
36315;SDS011;22343;50.820;2.666;2023-04-29T08:12:54;21.20;;;15.80;;
36315;SDS011;22343;50.820;2.666;2023-04-29T08:15:39;22.50;;;15.33;;
36315;SDS011;22343;50.820;2.666;2023-04-29T08:18:23;20.53;;;15.07;;
36315;SDS011;22343;50.820;2.666;2023-04-29T08:21:08;23.90;;;15.60;;
36315;SDS011;22343;50.820;2.666;2023-04-29T08:23:54;23.00;;;16.20;;
36315;SDS011;22343;50.820;2.666;2023-04-29T08:26:39;20.47;;;15.30;;
36315;SDS011;22343;50.820;2.666;2023-04-29T08:29:24;22.73;;;16.60;;
36315;SDS011;22343;50.820;2.666;2023-04-29T08:32:08;20.23;;;16.13;;
36315;SDS011;22343;50.820;2.666;2023-04-29T08:34:53;22.43;;;15.87;;
36315;SDS011;22343;50.820;2.666;2023-04-29T08:37:37;20.33;;;15.17;;
36315;SDS011;22343;50.820;2.666;2023-04-29T08:40:21;22.40;;;15.23;;
36315;SDS011;22343;50.820;2.666;2023-04-29T08:43:06;22.30;;;16.27;;
36315;SDS011;22343;50.820;2.666;2023-04-29T08:45:52;20.27;;;14.97;;
36315;SDS011;22343;50.820;2.666;2023-04-29T08:48:38;21.57;;;14.90;;
36315;SDS011;22343;50.820;2.666;2023-04-29T08:51:26;25.07;;;16.50;;
36315;SDS011;22343;50.820;2.666;2023-04-29T08:54:11;20.47;;;15.40;;
36315;SDS011;22343;50.820;2.666;2023-04-29T08:56:55;18.87;;;14.93;;
36315;SDS011;22343;50.820;2.666;2023-04-29T08:59:41;19.67;;;15.77;;
36315;SDS011;22343;50.820;2.666;2023-04-29T09:02:26;21.27;;;16.03;;
36315;SDS011;22343;50.820;2.666;2023-04-29T09:05:11;20.73;;;16.63;;
36315;SDS011;22343;50.820;2.666;2023-04-29T09:07:56;19.47;;;15.93;;
36315;SDS011;22343;50.820;2.666;2023-04-29T09:10:42;20.63;;;15.60;;
36315;SDS011;22343;50.820;2.666;2023-04-29T09:13:27;26.10;;;18.90;;
36315;SDS011;22343;50.820;2.666;2023-04-29T09:16:13;28.83;;;20.57;;
36315;SDS011;22343;50.820;2.666;2023-04-29T09:18:57;25.13;;;17.13;;
36315;SDS011;22343;50.820;2.666;2023-04-29T09:21:42;23.00;;;16.13;;
36315;SDS011;22343;50.820;2.666;2023-04-29T09:24:37;24.63;;;17.13;;
36315;SDS011;22343;50.820;2.666;2023-04-29T09:27:26;27.23;;;17.67;;
36315;SDS011;22343;50.820;2.666;2023-04-29T09:30:12;23.03;;;16.33;;
36315;SDS011;22343;50.820;2.666;2023-04-29T09:33:06;24.93;;;16.73;;
36315;SDS011;22343;50.820;2.666;2023-04-29T09:35:51;23.50;;;18.13;;
36315;SDS011;22343;50.820;2.666;2023-04-29T09:38:35;24.53;;;17.80;;
36315;SDS011;22343;50.820;2.666;2023-04-29T09:41:20;22.17;;;16.43;;
36315;SDS011;22343;50.820;2.666;2023-04-29T09:44:08;22.63;;;16.70;;
36315;SDS011;22343;50.820;2.666;2023-04-29T09:49:42;23.77;;;16.47;;
36315;SDS011;22343;50.820;2.666;2023-04-29T09:52:28;23.77;;;17.63;;
36315;SDS011;22343;50.820;2.666;2023-04-29T09:55:23;24.20;;;16.80;;
36315;SDS011;22343;50.820;2.666;2023-04-29T09:58:07;25.23;;;18.07;;
36315;SDS011;22343;50.820;2.666;2023-04-29T10:00:52;24.83;;;18.17;;
36315;SDS011;22343;50.820;2.666;2023-04-29T10:03:36;21.37;;;15.47;;
36315;SDS011;22343;50.820;2.666;2023-04-29T10:06:21;22.23;;;15.30;;
36315;SDS011;22343;50.820;2.666;2023-04-29T10:09:07;21.10;;;14.60;;
36315;SDS011;22343;50.820;2.666;2023-04-29T10:11:58;18.10;;;14.40;;
36315;SDS011;22343;50.820;2.666;2023-04-29T10:15:01;19.83;;;14.70;;
36315;SDS011;22343;50.820;2.666;2023-04-29T10:18:02;18.97;;;14.10;;
36315;SDS011;22343;50.820;2.666;2023-04-29T10:21:05;19.23;;;14.63;;
36315;SDS011;22343;50.820;2.666;2023-04-29T10:23:51;18.90;;;14.20;;
36315;SDS011;22343;50.820;2.666;2023-04-29T10:26:37;19.97;;;15.40;;
36315;SDS011;22343;50.820;2.666;2023-04-29T10:29:21;19.57;;;15.67;;
36315;SDS011;22343;50.820;2.666;2023-04-29T10:32:08;19.00;;;14.70;;
36315;SDS011;22343;50.820;2.666;2023-04-29T10:34:56;17.67;;;13.90;;
36315;SDS011;22343;50.820;2.666;2023-04-29T10:37:42;20.03;;;15.17;;
36315;SDS011;22343;50.820;2.666;2023-04-29T10:43:13;21.47;;;15.77;;
36315;SDS011;22343;50.820;2.666;2023-04-29T10:49:02;17.67;;;14.60;;
36315;SDS011;22343;50.820;2.666;2023-04-29T10:51:47;21.83;;;15.67;;
36315;SDS011;22343;50.820;2.666;2023-04-29T10:54:31;18.67;;;14.53;;
36315;SDS011;22343;50.820;2.666;2023-04-29T10:57:19;22.00;;;15.57;;
36315;SDS011;22343;50.820;2.666;2023-04-29T11:00:04;18.70;;;14.60;;
36315;SDS011;22343;50.820;2.666;2023-04-29T11:02:49;19.73;;;15.40;;
36315;SDS011;22343;50.820;2.666;2023-04-29T11:05:34;18.97;;;14.97;;
36315;SDS011;22343;50.820;2.666;2023-04-29T11:08:20;17.70;;;15.10;;
36315;SDS011;22343;50.820;2.666;2023-04-29T11:11:07;18.93;;;14.47;;
36315;SDS011;22343;50.820;2.666;2023-04-29T11:13:52;17.47;;;15.30;;
36315;SDS011;22343;50.820;2.666;2023-04-29T11:16:36;18.27;;;15.03;;
36315;SDS011;22343;50.820;2.666;2023-04-29T11:19:22;21.10;;;14.90;;
36315;SDS011;22343;50.820;2.666;2023-04-29T11:22:29;18.43;;;14.50;;
36315;SDS011;22343;50.820;2.666;2023-04-29T11:25:15;21.07;;;15.47;;
36315;SDS011;22343;50.820;2.666;2023-04-29T11:27:59;20.87;;;15.40;;
36315;SDS011;22343;50.820;2.666;2023-04-29T11:30:45;19.83;;;15.83;;
36315;SDS011;22343;50.820;2.666;2023-04-29T11:33:31;18.23;;;14.70;;
36315;SDS011;22343;50.820;2.666;2023-04-29T11:36:16;19.73;;;14.60;;
36315;SDS011;22343;50.820;2.666;2023-04-29T11:39:02;18.33;;;15.03;;
36315;SDS011;22343;50.820;2.666;2023-04-29T11:41:48;19.83;;;14.33;;
36315;SDS011;22343;50.820;2.666;2023-04-29T11:44:35;16.90;;;14.03;;
36315;SDS011;22343;50.820;2.666;2023-04-29T11:47:20;20.77;;;14.90;;
36315;SDS011;22343;50.820;2.666;2023-04-29T11:50:13;16.87;;;13.47;;
36315;SDS011;22343;50.820;2.666;2023-04-29T11:53:00;17.67;;;14.33;;
36315;SDS011;22343;50.820;2.666;2023-04-29T11:55:44;16.90;;;14.27;;
36315;SDS011;22343;50.820;2.666;2023-04-29T11:58:29;17.27;;;14.40;;
36315;SDS011;22343;50.820;2.666;2023-04-29T12:01:14;17.70;;;15.20;;
36315;SDS011;22343;50.820;2.666;2023-04-29T12:03:58;17.17;;;14.57;;
36315;SDS011;22343;50.820;2.666;2023-04-29T12:06:43;16.37;;;14.57;;
36315;SDS011;22343;50.820;2.666;2023-04-29T12:09:40;17.43;;;14.07;;
36315;SDS011;22343;50.820;2.666;2023-04-29T12:12:24;20.53;;;15.20;;
36315;SDS011;22343;50.820;2.666;2023-04-29T12:15:10;16.60;;;13.80;;
36315;SDS011;22343;50.820;2.666;2023-04-29T12:17:55;15.27;;;13.60;;
36315;SDS011;22343;50.820;2.666;2023-04-29T12:20:40;18.97;;;13.97;;
36315;SDS011;22343;50.820;2.666;2023-04-29T12:23:24;17.25;;;14.23;;
36315;SDS011;22343;50.820;2.666;2023-04-29T12:26:10;19.30;;;16.23;;
36315;SDS011;22343;50.820;2.666;2023-04-29T12:28:56;17.10;;;15.13;;
36315;SDS011;22343;50.820;2.666;2023-04-29T12:31:42;20.27;;;14.90;;
36315;SDS011;22343;50.820;2.666;2023-04-29T12:34:30;16.98;;;13.75;;
36315;SDS011;22343;50.820;2.666;2023-04-29T12:37:16;17.33;;;12.75;;
36315;SDS011;22343;50.820;2.666;2023-04-29T12:40:00;16.58;;;14.10;;
36315;SDS011;22343;50.820;2.666;2023-04-29T12:42:45;15.60;;;13.63;;
36315;SDS011;22343;50.820;2.666;2023-04-29T12:45:30;15.85;;;13.50;;
36315;SDS011;22343;50.820;2.666;2023-04-29T12:48:16;16.85;;;13.98;;
36315;SDS011;22343;50.820;2.666;2023-04-29T12:51:00;15.65;;;13.68;;
36315;SDS011;22343;50.820;2.666;2023-04-29T12:53:45;15.82;;;14.05;;
36315;SDS011;22343;50.820;2.666;2023-04-29T12:56:30;15.55;;;13.82;;
36315;SDS011;22343;50.820;2.666;2023-04-29T12:59:14;15.18;;;13.57;;
36315;SDS011;22343;50.820;2.666;2023-04-29T13:02:00;15.20;;;13.43;;
36315;SDS011;22343;50.820;2.666;2023-04-29T13:04:44;17.70;;;13.40;;
36315;SDS011;22343;50.820;2.666;2023-04-29T13:07:28;16.80;;;13.32;;
36315;SDS011;22343;50.820;2.666;2023-04-29T13:10:13;14.65;;;12.50;;
36315;SDS011;22343;50.820;2.666;2023-04-29T13:12:57;17.35;;;13.93;;
36315;SDS011;22343;50.820;2.666;2023-04-29T13:15:42;16.75;;;12.82;;
36315;SDS011;22343;50.820;2.666;2023-04-29T13:18:27;14.35;;;12.85;;
36315;SDS011;22343;50.820;2.666;2023-04-29T13:21:11;13.88;;;12.43;;
36315;SDS011;22343;50.820;2.666;2023-04-29T13:23:56;15.32;;;12.95;;
36315;SDS011;22343;50.820;2.666;2023-04-29T13:26:40;15.15;;;12.68;;
36315;SDS011;22343;50.820;2.666;2023-04-29T13:29:25;14.60;;;12.60;;
36315;SDS011;22343;50.820;2.666;2023-04-29T13:32:09;17.45;;;14.50;;
36315;SDS011;22343;50.820;2.666;2023-04-29T13:34:54;15.98;;;14.27;;
36315;SDS011;22343;50.820;2.666;2023-04-29T13:37:39;16.17;;;14.30;;
36315;SDS011;22343;50.820;2.666;2023-04-29T13:40:23;17.45;;;13.63;;
36315;SDS011;22343;50.820;2.666;2023-04-29T13:43:08;16.52;;;14.00;;
36315;SDS011;22343;50.820;2.666;2023-04-29T13:45:52;17.92;;;14.35;;
36315;SDS011;22343;50.820;2.666;2023-04-29T13:48:37;16.48;;;13.95;;
36315;SDS011;22343;50.820;2.666;2023-04-29T13:51:21;15.98;;;13.90;;
36315;SDS011;22343;50.820;2.666;2023-04-29T13:54:05;18.60;;;14.20;;
36315;SDS011;22343;50.820;2.666;2023-04-29T13:56:50;16.35;;;13.63;;
36315;SDS011;22343;50.820;2.666;2023-04-29T13:59:34;17.80;;;15.23;;
36315;SDS011;22343;50.820;2.666;2023-04-29T14:02:20;15.65;;;13.90;;
36315;SDS011;22343;50.820;2.666;2023-04-29T14:05:05;17.38;;;14.70;;
36315;SDS011;22343;50.820;2.666;2023-04-29T14:07:49;17.25;;;14.23;;
36315;SDS011;22343;50.820;2.666;2023-04-29T14:10:35;19.83;;;15.43;;
36315;SDS011;22343;50.820;2.666;2023-04-29T14:13:20;19.92;;;15.65;;
36315;SDS011;22343;50.820;2.666;2023-04-29T14:16:05;17.17;;;15.35;;
36315;SDS011;22343;50.820;2.666;2023-04-29T14:18:52;25.88;;;18.38;;
36315;SDS011;22343;50.820;2.666;2023-04-29T14:21:37;22.98;;;16.88;;
36315;SDS011;22343;50.820;2.666;2023-04-29T14:24:21;23.15;;;17.30;;
36315;SDS011;22343;50.820;2.666;2023-04-29T14:27:06;19.77;;;16.73;;
36315;SDS011;22343;50.820;2.666;2023-04-29T14:29:50;20.92;;;17.77;;
36315;SDS011;22343;50.820;2.666;2023-04-29T14:32:34;18.58;;;15.25;;
36315;SDS011;22343;50.820;2.666;2023-04-29T14:35:19;22.00;;;17.35;;
36315;SDS011;22343;50.820;2.666;2023-04-29T14:38:03;22.40;;;18.33;;
36315;SDS011;22343;50.820;2.666;2023-04-29T14:40:47;23.30;;;18.42;;
36315;SDS011;22343;50.820;2.666;2023-04-29T14:43:32;21.92;;;16.73;;
36315;SDS011;22343;50.820;2.666;2023-04-29T14:46:16;22.52;;;18.73;;
36315;SDS011;22343;50.820;2.666;2023-04-29T14:49:00;24.30;;;19.90;;
36315;SDS011;22343;50.820;2.666;2023-04-29T14:51:45;23.20;;;18.50;;
36315;SDS011;22343;50.820;2.666;2023-04-29T14:54:29;24.10;;;18.87;;
36315;SDS011;22343;50.820;2.666;2023-04-29T14:57:14;23.70;;;18.83;;
36315;SDS011;22343;50.820;2.666;2023-04-29T14:59:58;24.50;;;18.30;;
36315;SDS011;22343;50.820;2.666;2023-04-29T15:02:42;24.57;;;19.40;;
36315;SDS011;22343;50.820;2.666;2023-04-29T15:05:27;25.00;;;19.23;;
36315;SDS011;22343;50.820;2.666;2023-04-29T15:08:13;25.97;;;19.80;;
36315;SDS011;22343;50.820;2.666;2023-04-29T15:10:57;24.07;;;19.13;;
36315;SDS011;22343;50.820;2.666;2023-04-29T15:13:42;23.37;;;18.77;;
36315;SDS011;22343;50.820;2.666;2023-04-29T15:16:26;23.27;;;19.27;;
36315;SDS011;22343;50.820;2.666;2023-04-29T15:19:11;25.53;;;19.47;;
36315;SDS011;22343;50.820;2.666;2023-04-29T15:21:56;24.50;;;19.70;;
36315;SDS011;22343;50.820;2.666;2023-04-29T15:24:40;23.07;;;18.67;;
36315;SDS011;22343;50.820;2.666;2023-04-29T15:27:25;22.43;;;18.90;;
36315;SDS011;22343;50.820;2.666;2023-04-29T15:30:10;20.87;;;17.10;;
36315;SDS011;22343;50.820;2.666;2023-04-29T15:32:55;21.63;;;16.67;;
36315;SDS011;22343;50.820;2.666;2023-04-29T15:35:39;24.30;;;17.20;;
36315;SDS011;22343;50.820;2.666;2023-04-29T15:38:24;25.20;;;16.70;;
36315;SDS011;22343;50.820;2.666;2023-04-29T15:41:08;24.33;;;17.40;;
36315;SDS011;22343;50.820;2.666;2023-04-29T15:43:53;20.93;;;16.33;;
36315;SDS011;22343;50.820;2.666;2023-04-29T15:46:39;24.20;;;17.77;;
36315;SDS011;22343;50.820;2.666;2023-04-29T15:49:23;25.67;;;17.53;;
36315;SDS011;22343;50.820;2.666;2023-04-29T15:52:08;23.90;;;18.73;;
36315;SDS011;22343;50.820;2.666;2023-04-29T15:54:53;23.53;;;19.00;;
36315;SDS011;22343;50.820;2.666;2023-04-29T15:57:37;24.10;;;18.07;;
36315;SDS011;22343;50.820;2.666;2023-04-29T16:00:25;19.83;;;15.13;;
36315;SDS011;22343;50.820;2.666;2023-04-29T16:03:10;25.30;;;19.17;;
36315;SDS011;22343;50.820;2.666;2023-04-29T16:05:54;24.37;;;17.90;;
36315;SDS011;22343;50.820;2.666;2023-04-29T16:08:38;24.47;;;17.63;;
36315;SDS011;22343;50.820;2.666;2023-04-29T16:11:23;25.77;;;19.20;;
36315;SDS011;22343;50.820;2.666;2023-04-29T16:14:07;23.17;;;17.67;;
36315;SDS011;22343;50.820;2.666;2023-04-29T16:16:52;26.57;;;18.90;;
36315;SDS011;22343;50.820;2.666;2023-04-29T16:19:36;23.37;;;19.50;;
36315;SDS011;22343;50.820;2.666;2023-04-29T16:22:21;23.73;;;18.03;;
36315;SDS011;22343;50.820;2.666;2023-04-29T16:25:05;26.03;;;19.33;;
36315;SDS011;22343;50.820;2.666;2023-04-29T16:27:50;24.20;;;19.37;;
36315;SDS011;22343;50.820;2.666;2023-04-29T16:30:34;22.97;;;19.17;;
36315;SDS011;22343;50.820;2.666;2023-04-29T16:33:18;27.90;;;19.20;;
36315;SDS011;22343;50.820;2.666;2023-04-29T16:36:03;25.43;;;19.30;;